Time;durP1;ratioP1;P1;durP2;ratioP2;P2;SDS_P1;SDS_P2;PMS_P1;PMS_P2;Temp;Humidity;BMP_temperature;BMP_pressure;BME280_temperature;BME280_humidity;BME280_pressure;Samples;Min_cycle;Max_cycle;Signal;HPM_P1;HPM_P2
2021/08/15 00:02:00;;;;;;;1999.90;999.90;;;20.60;99.90;;;;;;5060066;28;20427;-83
2021/08/15 00:04:26;;;;;;;1999.90;999.90;;;20.50;99.90;;;;;;5060705;28;20176;-84
2021/08/15 00:06:53;;;;;;;1999.90;999.90;;;20.60;99.90;;;;;;5060263;28;20278;-84
2021/08/15 00:09:19;;;;;;;1999.90;999.90;;;20.60;99.90;;;;;;5060430;28;20247;-84
2021/08/15 00:11:46;;;;;;;1999.90;999.90;;;20.50;99.90;;;;;;5060035;28;20977;-84
2021/08/15 00:14:12;;;;;;;1999.90;999.90;;;20.40;99.90;;;;;;5060307;28;20408;-84
2021/08/15 00:16:37;;;;;;;1999.90;999.90;;;20.40;99.90;;;;;;5060391;28;20423;-84
2021/08/15 00:19:07;;;;;;;1999.90;999.90;;;20.40;99.90;;;;;;5042950;28;20202;-83
2021/08/15 00:21:37;;;;;;;1999.90;999.90;;;20.40;99.90;;;;;;5061547;28;20262;-84
2021/08/15 00:24:05;;;;;;;1999.90;999.90;;;20.30;99.90;;;;;;5043368;28;20828;-84
2021/08/15 00:26:32;;;;;;;1999.90;999.90;;;20.30;99.90;;;;;;5042601;28;20455;-85
2021/08/15 00:28:58;;;;;;;1999.90;999.90;;;20.30;99.90;;;;;;5041087;28;20785;-84
2021/08/15 00:31:27;;;;;;;1999.90;999.90;;;20.20;99.90;;;;;;5059067;28;20406;-85
2021/08/15 00:33:53;;;;;;;1999.90;999.90;;;20.30;99.90;;;;;;5041142;28;20419;-85
2021/08/15 00:36:19;;;;;;;1999.90;999.90;;;20.20;99.90;;;;;;5040296;28;20464;-84
2021/08/15 00:38:44;;;;;;;1999.90;999.90;;;20.20;99.90;;;;;;5040445;28;20504;-84
2021/08/15 00:41:10;;;;;;;1999.90;999.90;;;20.20;99.90;;;;;;5058660;28;20162;-84
2021/08/15 00:43:36;;;;;;;1999.90;999.90;;;20.20;99.90;;;;;;5040866;28;20171;-84
2021/08/15 00:46:09;;;;;;;1999.90;999.90;;;20.10;99.90;;;;;;5040542;28;20168;-84
2021/08/15 00:48:35;;;;;;;1999.90;999.90;;;20.10;99.90;;;;;;5040400;28;20694;-84
2021/08/15 00:51:01;;;;;;;1999.90;999.90;;;20.00;99.90;;;;;;5058374;28;20419;-85
2021/08/15 00:53:40;;;;;;;1999.90;999.90;;;20.00;99.90;;;;;;5040602;28;20411;-84
2021/08/15 00:56:08;;;;;;;1999.90;999.90;;;20.00;99.90;;;;;;5058686;28;20473;-84
2021/08/15 00:58:35;;;;;;;1999.90;999.90;;;19.90;99.90;;;;;;5058155;28;20406;-84
2021/08/15 01:01:05;;;;;;;1999.90;999.90;;;20.00;99.90;;;;;;5058960;28;20406;-85
2021/08/15 01:03:31;;;;;;;1999.90;999.90;;;20.00;99.90;;;;;;5040444;28;20444;-84
2021/08/15 01:05:57;;;;;;;1999.90;999.90;;;19.90;99.90;;;;;;5057942;28;20414;-84
2021/08/15 01:08:23;;;;;;;1999.90;999.90;;;19.90;99.90;;;;;;5040215;28;20524;-85
2021/08/15 01:10:49;;;;;;;1999.90;999.90;;;19.90;99.90;;;;;;5040983;28;20490;-84
2021/08/15 01:13:15;;;;;;;1999.90;999.90;;;19.90;99.90;;;;;;5057618;28;20171;-84
2021/08/15 01:15:41;;;;;;;1999.90;999.90;;;19.80;99.90;;;;;;5058067;28;20203;-84
2021/08/15 01:18:19;;;;;;;1999.90;999.90;;;19.80;99.90;;;;;;5058526;28;20442;-84
2021/08/15 01:20:45;;;;;;;1999.90;999.90;;;19.80;99.90;;;;;;5040867;28;20167;-84
2021/08/15 01:23:11;;;;;;;1999.90;999.90;;;19.80;99.90;;;;;;5058197;28;20533;-83
2021/08/15 01:25:36;;;;;;;1999.90;999.90;;;19.70;99.90;;;;;;5058199;28;20920;-84
2021/08/15 01:28:03;;;;;;;1999.90;999.90;;;19.70;99.90;;;;;;5040919;28;20194;-84
2021/08/15 01:30:28;;;;;;;1999.90;999.90;;;19.70;99.90;;;;;;5059727;28;20165;-84
2021/08/15 01:32:54;;;;;;;1999.90;999.90;;;19.70;99.90;;;;;;5058334;28;20769;-84
2021/08/15 01:35:20;;;;;;;1999.90;999.90;;;19.70;99.90;;;;;;5058927;28;20186;-84
2021/08/15 01:37:45;;;;;;;1999.90;999.90;;;19.60;99.90;;;;;;5040591;28;20249;-84
2021/08/15 01:40:13;;;;;;;1999.90;999.90;;;19.70;99.90;;;;;;5057783;28;20182;-84
2021/08/15 01:42:38;;;;;;;1999.90;999.90;;;19.60;99.90;;;;;;5058361;28;20168;-83
2021/08/15 01:45:12;;;;;;;1999.90;999.90;;;19.60;99.90;;;;;;5058496;28;20504;-84
2021/08/15 01:47:38;;;;;;;1999.90;999.90;;;19.60;99.90;;;;;;5041469;28;20189;-84
2021/08/15 01:50:04;;;;;;;1999.90;999.90;;;19.50;99.90;;;;;;5058669;28;20440;-84
2021/08/15 01:52:30;;;;;;;1999.90;999.90;;;19.50;99.90;;;;;;5040697;28;20174;-83
2021/08/15 01:54:55;;;;;;;1999.90;999.90;;;19.50;99.90;;;;;;5057686;28;20446;-83
2021/08/15 01:57:21;;;;;;;1999.90;999.90;;;19.40;99.90;;;;;;5057306;28;20182;-84
2021/08/15 01:59:46;;;;;;;1999.90;999.90;;;19.40;99.90;;;;;;5057334;28;20526;-83
2021/08/15 02:02:12;;;;;;;1999.90;999.90;;;19.40;99.90;;;;;;5057741;28;20156;-83
2021/08/15 02:04:38;;;;;;;1999.90;999.90;;;19.40;99.90;;;;;;5039801;28;20261;-83
2021/08/15 02:07:05;;;;;;;1999.90;999.90;;;19.40;99.90;;;;;;5057923;28;20190;-84
2021/08/15 02:09:31;;;;;;;1999.90;999.90;;;19.30;99.90;;;;;;5057584;28;20158;-84
2021/08/15 02:11:56;;;;;;;1999.90;999.90;;;19.30;99.90;;;;;;5057200;28;20401;-83
2021/08/15 02:14:22;;;;;;;1999.90;999.90;;;19.30;99.90;;;;;;5057136;28;20448;-84
2021/08/15 02:16:48;;;;;;;1999.90;999.90;;;19.30;99.90;;;;;;5057745;28;20184;-84
2021/08/15 02:19:13;;;;;;;1999.90;999.90;;;19.30;99.90;;;;;;5056935;28;20175;-84
2021/08/15 02:21:39;;;;;;;1999.90;999.90;;;19.30;99.90;;;;;;5057509;28;20215;-84
2021/08/15 02:24:05;;;;;;;1999.90;999.90;;;19.20;99.90;;;;;;5056993;28;20156;-84
2021/08/15 02:26:30;;;;;;;1999.90;999.90;;;19.10;99.90;;;;;;5057085;28;20268;-84
2021/08/15 02:28:56;;;;;;;1999.90;999.90;;;19.00;99.90;;;;;;5056874;28;20283;-84
2021/08/15 02:31:22;;;;;;;1999.90;999.90;;;19.00;99.90;;;;;;5039342;28;20540;-84
2021/08/15 02:33:47;;;;;;;1999.90;999.90;;;18.90;99.90;;;;;;5057360;28;20180;-84
2021/08/15 02:36:13;;;;;;;1999.90;999.90;;;18.70;99.90;;;;;;5057143;28;20223;-84
2021/08/15 02:38:38;;;;;;;1999.90;999.90;;;18.70;99.90;;;;;;5039662;28;20316;-84
2021/08/15 02:41:04;;;;;;;1999.90;999.90;;;18.70;99.90;;;;;;5057926;28;20172;-84
2021/08/15 02:43:30;;;;;;;1999.90;999.90;;;18.70;99.90;;;;;;5057287;28;20158;-84
2021/08/15 02:45:55;;;;;;;1999.90;999.90;;;18.60;99.90;;;;;;5056921;28;20659;-84
2021/08/15 02:48:21;;;;;;;1999.90;999.90;;;18.60;99.90;;;;;;5056057;28;20184;-84
2021/08/15 02:50:47;;;;;;;1999.90;999.90;;;18.50;99.90;;;;;;5056548;28;20558;-84
2021/08/15 02:53:12;;;;;;;1999.90;999.90;;;18.50;99.90;;;;;;5057031;28;20183;-84
2021/08/15 02:55:38;;;;;;;1999.90;999.90;;;18.60;99.90;;;;;;5056730;28;20561;-84
2021/08/15 02:58:04;;;;;;;1999.90;999.90;;;18.50;99.90;;;;;;5038867;28;20185;-84
2021/08/15 03:00:29;;;;;;;1999.90;999.90;;;18.50;99.90;;;;;;5056788;28;20212;-84
2021/08/15 03:02:55;;;;;;;1999.90;999.90;;;18.40;99.90;;;;;;5038610;28;20166;-84
2021/08/15 03:05:22;;;;;;;1999.90;999.90;;;18.40;99.90;;;;;;5057035;28;20169;-84
2021/08/15 03:07:47;;;;;;;1999.90;999.90;;;18.40;99.90;;;;;;5039554;28;20200;-84
2021/08/15 03:10:16;;;;;;;1999.90;999.90;;;18.40;99.90;;;;;;5042835;28;20441;-84
2021/08/15 03:12:42;;;;;;;1999.90;999.90;;;18.30;99.90;;;;;;5042506;28;20256;-84
2021/08/15 03:15:09;;;;;;;1999.90;999.90;;;18.20;99.90;;;;;;5059656;28;20489;-83
2021/08/15 03:17:34;;;;;;;1999.90;999.90;;;18.10;99.90;;;;;;5060881;28;20244;-84
2021/08/15 03:20:00;;;;;;;1999.90;999.90;;;18.20;99.90;;;;;;5042599;28;20431;-84
2021/08/15 03:22:26;;;;;;;1999.90;999.90;;;18.10;99.90;;;;;;5043488;28;20165;-83
2021/08/15 03:24:52;;;;;;;1999.90;999.90;;;18.00;99.90;;;;;;5061222;28;20956;-83
2021/08/15 03:27:17;;;;;;;1999.90;999.90;;;18.10;99.90;;;;;;5042949;28;20184;-83
2021/08/15 03:29:43;;;;;;;1999.90;999.90;;;18.10;99.90;;;;;;5060822;28;20171;-84
2021/08/15 03:32:09;;;;;;;1999.90;999.90;;;18.20;99.90;;;;;;5042941;28;20195;-83
2021/08/15 03:34:34;;;;;;;1999.90;999.90;;;18.20;99.90;;;;;;5043082;28;20290;-83
2021/08/15 03:37:00;;;;;;;1999.90;999.90;;;18.20;99.90;;;;;;5040179;28;20181;-83
2021/08/15 03:39:30;;;;;;;1999.90;999.90;;;18.10;99.90;;;;;;5038260;28;20192;-83
2021/08/15 03:41:58;;;;;;;1999.90;999.90;;;18.20;99.90;;;;;;5038248;28;20583;-83
2021/08/15 03:44:31;;;;;;;1999.90;999.90;;;18.10;99.90;;;;;;5056219;28;20438;-83
2021/08/15 03:46:57;;;;;;;1999.90;999.90;;;18.10;99.90;;;;;;5056420;28;20476;-83
2021/08/15 03:49:24;;;;;;;1999.90;999.90;;;18.00;99.90;;;;;;5041296;28;20933;-84
2021/08/15 03:51:50;;;;;;;1999.90;999.90;;;18.10;99.90;;;;;;5041360;28;20802;-84
2021/08/15 03:54:19;;;;;;;1999.90;999.90;;;18.00;99.90;;;;;;5059863;28;20407;-84
2021/08/15 03:56:48;;;;;;;1999.90;999.90;;;18.00;99.90;;;;;;5041658;28;20578;-84
2021/08/15 03:59:15;;;;;;;1999.90;999.90;;;18.10;99.90;;;;;;5059846;28;20406;-84
2021/08/15 04:01:41;;;;;;;1999.90;999.90;;;18.10;99.90;;;;;;5059485;28;20397;-84
2021/08/15 04:04:06;;;;;;;1999.90;999.90;;;18.00;99.90;;;;;;5059438;28;20735;-84
2021/08/15 04:06:34;;;;;;;1999.90;999.90;;;18.20;99.90;;;;;;5059845;28;20430;-84
2021/08/15 04:09:01;;;;;;;1999.90;999.90;;;18.20;99.90;;;;;;5059456;28;20163;-84
2021/08/15 04:11:28;;;;;;;1999.90;999.90;;;18.20;99.90;;;;;;5059555;28;20407;-84
2021/08/15 04:13:54;;;;;;;1999.90;999.90;;;18.20;99.90;;;;;;5059326;28;20412;-84
2021/08/15 04:16:19;;;;;;;1999.90;999.90;;;18.20;99.90;;;;;;5042267;28;20443;-84
2021/08/15 04:18:45;;;;;;;1999.90;999.90;;;18.20;99.90;;;;;;5059130;28;20499;-84
2021/08/15 04:21:11;;;;;;;1999.90;999.90;;;18.30;99.90;;;;;;5042014;28;20228;-84
2021/08/15 04:23:36;;;;;;;1999.90;999.90;;;18.30;99.90;;;;;;5042430;28;20172;-84
2021/08/15 04:26:03;;;;;;;1999.90;999.90;;;18.30;99.90;;;;;;5041377;28;20173;-84
2021/08/15 04:28:29;;;;;;;1999.90;999.90;;;18.30;99.90;;;;;;5041943;28;20513;-84
2021/08/15 04:30:55;;;;;;;1999.90;999.90;;;18.20;99.90;;;;;;5041449;28;20544;-84
2021/08/15 04:33:24;;;;;;;1999.90;999.90;;;18.10;99.90;;;;;;5060304;28;20169;-84
2021/08/15 04:35:50;;;;;;;1999.90;999.90;;;18.10;99.90;;;;;;5041030;28;20443;-84
2021/08/15 04:38:16;;;;;;;1999.90;999.90;;;18.20;99.90;;;;;;5059083;28;20427;-84
2021/08/15 04:40:41;;;;;;;1999.90;999.90;;;18.20;99.90;;;;;;5059566;28;20410;-84
2021/08/15 04:43:07;;;;;;;1999.90;999.90;;;18.20;99.90;;;;;;5060252;28;20165;-84
2021/08/15 04:45:33;;;;;;;1999.90;999.90;;;18.30;99.90;;;;;;5060024;28;20643;-84
2021/08/15 04:47:58;;;;;;;1999.90;999.90;;;18.30;99.90;;;;;;5059431;28;20189;-84
2021/08/15 04:50:24;;;;;;;1999.90;999.90;;;18.20;99.90;;;;;;5059278;28;20176;-84
2021/08/15 04:52:49;;;;;;;1999.90;999.90;;;18.20;99.90;;;;;;5059134;28;20193;-84
2021/08/15 04:55:15;;;;;;;1999.90;999.90;;;18.20;99.90;;;;;;5059364;28;20195;-84
2021/08/15 04:57:41;;;;;;;1999.90;999.90;;;18.10;99.90;;;;;;5059273;28;20181;-84
2021/08/15 05:00:07;;;;;;;1999.90;999.90;;;18.00;99.90;;;;;;5041438;28;20169;-84
2021/08/15 05:02:32;;;;;;;1999.90;999.90;;;18.00;99.90;;;;;;5041415;28;20192;-84
2021/08/15 05:05:00;;;;;;;1999.90;999.90;;;18.00;99.90;;;;;;5040383;28;20790;-84
2021/08/15 05:07:26;;;;;;;1999.90;999.90;;;18.10;99.90;;;;;;5059467;28;20643;-83
2021/08/15 05:09:52;;;;;;;1999.90;999.90;;;18.10;99.90;;;;;;5059410;28;20434;-83
2021/08/15 05:12:18;;;;;;;1999.90;999.90;;;18.20;99.90;;;;;;5059389;28;20663;-83
2021/08/15 05:14:43;;;;;;;1999.90;999.90;;;18.20;99.90;;;;;;5059041;28;20446;-84
2021/08/15 05:17:09;;;;;;;1999.90;999.90;;;18.20;99.90;;;;;;5058779;28;20176;-83
2021/08/15 05:19:38;;;;;;;1999.90;999.90;;;18.30;99.90;;;;;;5058517;28;20677;-83
2021/08/15 05:22:03;;;;;;;1999.90;999.90;;;18.30;99.90;;;;;;5059068;28;20156;-84
2021/08/15 05:24:29;;;;;;;1999.90;999.90;;;18.30;99.90;;;;;;5058903;28;20926;-84
2021/08/15 05:26:58;;;;;;;1999.90;999.90;;;18.20;99.90;;;;;;5040937;28;20215;-84
2021/08/15 05:29:24;;;;;;;1999.90;999.90;;;18.20;99.90;;;;;;5059129;28;20157;-84
2021/08/15 05:31:49;;;;;;;1999.90;999.90;;;18.20;99.90;;;;;;5042115;28;20407;-84
2021/08/15 05:34:17;;;;;;;1999.90;999.90;;;18.30;99.90;;;;;;5041172;28;20165;-85
2021/08/15 05:36:43;;;;;;;1999.90;999.90;;;18.40;99.90;;;;;;5059777;28;20181;-84
2021/08/15 05:39:09;;;;;;;1999.90;999.90;;;18.40;99.90;;;;;;5059242;28;20395;-84
2021/08/15 05:41:34;;;;;;;1999.90;999.90;;;18.40;99.90;;;;;;5059284;28;20195;-85
2021/08/15 05:44:00;;;;;;;1999.90;999.90;;;18.30;99.90;;;;;;5059331;28;20161;-85
2021/08/15 05:46:26;;;;;;;1999.90;999.90;;;18.30;99.90;;;;;;5040973;28;20189;-84
2021/08/15 05:48:52;;;;;;;1999.90;999.90;;;18.30;99.90;;;;;;5041346;28;20175;-84
2021/08/15 05:51:17;;;;;;;1999.90;999.90;;;18.30;99.90;;;;;;5130012;22;20227;-79
2021/08/15 05:53:43;;;;;;;1999.90;999.90;;;18.40;99.90;;;;;;5056163;28;20259;-78
2021/08/15 05:56:09;;;;;;;1999.90;999.90;;;18.40;99.90;;;;;;5055421;28;20192;-80
2021/08/15 05:58:34;;;;;;;1999.90;999.90;;;18.40;99.90;;;;;;5037811;28;20168;-79
2021/08/15 06:01:00;;;;;;;1999.90;999.90;;;18.50;99.90;;;;;;5055427;28;20239;-79
2021/08/15 06:03:26;;;;;;;1999.90;999.90;;;18.50;99.90;;;;;;5037561;28;20164;-79
2021/08/15 06:05:51;;;;;;;1999.90;999.90;;;18.60;99.90;;;;;;5055116;28;20171;-79
2021/08/15 06:08:17;;;;;;;1999.90;999.90;;;18.70;99.90;;;;;;5055451;28;20726;-79
2021/08/15 06:10:43;;;;;;;1999.90;999.90;;;18.70;99.90;;;;;;5037153;28;20219;-80
2021/08/15 06:13:09;;;;;;;1999.90;999.90;;;18.70;99.90;;;;;;5055328;28;20176;-79
2021/08/15 06:15:35;;;;;;;1999.90;999.90;;;18.70;99.90;;;;;;5055324;28;20184;-79
2021/08/15 06:18:01;;;;;;;1999.90;999.90;;;18.70;99.90;;;;;;5054694;28;20428;-80
2021/08/15 06:20:28;;;;;;;1999.90;999.90;;;18.80;99.90;;;;;;5055344;28;20499;-79
2021/08/15 06:22:54;;;;;;;1999.90;999.90;;;18.80;99.90;;;;;;5054872;28;20248;-78
2021/08/15 06:25:20;;;;;;;1999.90;999.90;;;18.80;99.90;;;;;;5055224;28;20442;-79
2021/08/15 06:27:46;;;;;;;1999.90;999.90;;;18.80;99.90;;;;;;5054948;28;20200;-79
2021/08/15 06:30:17;;;;;;;1999.90;999.90;;;18.90;99.90;;;;;;5037119;28;20422;-79
2021/08/15 06:32:48;;;;;;;1999.90;999.90;;;18.90;99.90;;;;;;5055631;28;20424;-79
2021/08/15 06:35:17;;;;;;;1999.90;999.90;;;18.90;99.90;;;;;;5055430;28;20450;-79
2021/08/15 06:37:44;;;;;;;1999.90;999.90;;;18.90;99.90;;;;;;5055063;28;20782;-78
2021/08/15 06:40:10;;;;;;;1999.90;999.90;;;19.00;99.90;;;;;;5055242;28;20397;-80
2021/08/15 06:42:36;;;;;;;1999.90;999.90;;;19.20;99.90;;;;;;5055487;28;20396;-80
2021/08/15 06:45:02;;;;;;;1999.90;999.90;;;19.20;99.90;;;;;;5059394;28;20815;-79
2021/08/15 06:47:28;;;;;;;1999.90;999.90;;;19.30;99.90;;;;;;5059187;28;20220;-79
2021/08/15 06:49:53;;;;;;;1999.90;999.90;;;19.30;99.90;;;;;;5058512;28;20248;-78
2021/08/15 06:52:19;;;;;;;1999.90;999.90;;;19.40;99.90;;;;;;5059485;28;20877;-80
2021/08/15 06:54:45;;;;;;;1999.90;999.90;;;19.30;99.90;;;;;;5059009;28;20271;-79
2021/08/15 06:57:10;;;;;;;1999.90;999.90;;;19.20;99.90;;;;;;5059235;28;20189;-78
2021/08/15 06:59:36;;;;;;;1999.90;999.90;;;19.20;99.90;;;;;;5041323;28;20225;-79
2021/08/15 07:02:02;;;;;;;1999.90;999.90;;;19.30;99.90;;;;;;5040896;28;20169;-80
2021/08/15 07:04:27;;;;;;;1999.90;999.90;;;19.50;99.90;;;;;;5058818;28;20169;-79
2021/08/15 07:06:53;;;;;;;1999.90;999.90;;;19.50;99.90;;;;;;5058778;28;20240;-78
2021/08/15 07:09:19;;;;;;;1999.90;999.90;;;19.60;99.90;;;;;;5040316;28;20196;-78
2021/08/15 07:11:44;;;;;;;1999.90;999.90;;;19.70;99.90;;;;;;5041372;28;20179;-79
2021/08/15 07:14:10;;;;;;;1999.90;999.90;;;19.70;99.90;;;;;;5040536;28;20171;-80
2021/08/15 07:16:36;;;;;;;1999.90;999.90;;;19.80;99.90;;;;;;5058495;28;20184;-79
2021/08/15 07:19:01;;;;;;;1999.90;999.90;;;19.90;99.90;;;;;;5058275;28;20173;-79
2021/08/15 07:21:28;;;;;;;1999.90;999.90;;;19.90;99.90;;;;;;5058334;28;20244;-80
2021/08/15 07:23:54;;;;;;;1999.90;999.90;;;20.00;99.90;;;;;;5058045;28;20170;-79
2021/08/15 07:26:19;;;;;;;1999.90;999.90;;;19.90;99.90;;;;;;5058478;28;20440;-78
2021/08/15 07:28:45;;;;;;;1999.90;999.90;;;20.00;99.90;;;;;;5058501;28;20184;-78
2021/08/15 07:31:11;;;;;;;1999.90;999.90;;;20.10;99.90;;;;;;5057730;28;20497;-78
2021/08/15 07:33:36;;;;;;;1999.90;999.90;;;20.00;99.90;;;;;;5058251;28;20161;-79
2021/08/15 07:36:02;;;;;;;1999.90;999.90;;;20.20;99.90;;;;;;5040202;28;20192;-79
2021/08/15 07:38:28;;;;;;;1999.90;999.90;;;20.30;99.90;;;;;;5057897;28;20171;-79
2021/08/15 07:40:54;;;;;;;1999.90;999.90;;;20.30;99.90;;;;;;5040575;28;20403;-79
2021/08/15 07:43:20;;;;;;;1999.90;999.90;;;20.30;99.90;;;;;;5058245;28;20163;-79
2021/08/15 07:45:45;;;;;;;1999.90;999.90;;;20.20;99.90;;;;;;5057758;28;20220;-79
2021/08/15 07:48:11;;;;;;;1999.90;999.90;;;20.20;99.90;;;;;;5058292;28;20179;-79
2021/08/15 07:50:38;;;;;;;1999.90;999.90;;;20.20;99.90;;;;;;5057782;28;20181;-77
2021/08/15 07:53:14;;;;;;;1999.90;999.90;;;20.20;99.90;;;;;;5039801;28;20165;-78
2021/08/15 07:55:39;;;;;;;1999.90;999.90;;;20.30;99.90;;;;;;5039638;28;20511;-78
2021/08/15 07:58:05;;;;;;;1999.90;999.90;;;20.40;99.90;;;;;;5057766;28;20454;-78
2021/08/15 08:00:31;;;;;;;1999.90;999.90;;;20.40;99.90;;;;;;5039752;28;20171;-77
2021/08/15 08:02:56;;;;;;;1999.90;999.90;;;20.40;99.90;;;;;;5057779;28;20181;-77
2021/08/15 08:05:22;;;;;;;1999.90;999.90;;;20.50;99.90;;;;;;5057639;28;20191;-78
2021/08/15 08:07:50;;;;;;;1999.90;999.90;;;20.50;99.90;;;;;;5039076;28;20559;-78
2021/08/15 08:10:15;;;;;;;1999.90;999.90;;;20.50;99.90;;;;;;5039129;28;20509;-79
2021/08/15 08:12:45;;;;;;;1999.90;999.90;;;20.60;99.90;;;;;;5057724;28;20388;-78
2021/08/15 08:15:10;;;;;;;1999.90;999.90;;;20.60;99.90;;;;;;5039405;28;20592;-77
2021/08/15 08:17:36;;;;;;;1999.90;999.90;;;20.70;99.90;;;;;;5056791;28;20433;-78
2021/08/15 08:20:02;;;;;;;1999.90;999.90;;;20.70;99.90;;;;;;5056969;28;20183;-79
2021/08/15 08:22:28;;;;;;;1999.90;999.90;;;20.80;99.90;;;;;;5039248;28;20170;-78
2021/08/15 08:24:53;;;;;;;1999.90;999.90;;;20.80;99.90;;;;;;5039182;28;20809;-77
2021/08/15 08:27:20;;;;;;;1999.90;999.90;;;20.70;99.90;;;;;;5057230;28;20207;-79
2021/08/15 08:29:46;;;;;;;1999.90;999.90;;;20.80;99.90;;;;;;5039581;28;20171;-78
2021/08/15 08:32:15;;;;;;;1999.90;999.90;;;20.80;99.90;;;;;;5057197;28;20744;-78
2021/08/15 08:34:41;;;;;;;1999.90;999.90;;;20.90;99.90;;;;;;5057586;28;20410;-78
2021/08/15 08:37:07;;;;;;;1999.90;999.90;;;21.00;99.90;;;;;;5039144;28;20864;-77
2021/08/15 08:39:32;;;;;;;1999.90;999.90;;;21.20;99.90;;;;;;5057175;28;20171;-79
2021/08/15 08:42:01;;;;;;;1999.90;999.90;;;21.30;99.90;;;;;;5057253;28;20164;-78
2021/08/15 08:44:30;;;;;;;1999.90;999.90;;;21.60;99.90;;;;;;5038701;28;20172;-79
2021/08/15 08:47:05;;;;;;;1999.90;999.90;;;21.90;99.90;;;;;;5057450;28;20478;-78
2021/08/15 08:49:33;;;;;;;1999.90;999.90;;;22.00;99.90;;;;;;5039257;28;20456;-79
2021/08/15 08:51:59;;;;;;;1999.90;999.90;;;22.10;99.90;;;;;;5056929;28;20548;-79
2021/08/15 08:54:26;;;;;;;1999.90;999.90;;;22.20;99.90;;;;;;5056754;28;20416;-78
2021/08/15 08:56:53;;;;;;;1999.90;999.90;;;22.40;99.90;;;;;;5056598;28;20490;-79
2021/08/15 08:59:19;;;;;;;1999.90;999.90;;;22.40;99.90;;;;;;5056630;28;20396;-77
2021/08/15 09:01:45;;;;;;;1999.90;999.90;;;22.50;99.90;;;;;;5038418;28;20431;-78
2021/08/15 09:04:11;;;;;;;1999.90;999.90;;;22.70;99.90;;;;;;5056616;28;20410;-79
2021/08/15 09:06:41;;;;;;;1999.90;999.90;;;22.70;99.90;;;;;;5055012;28;20200;-77
2021/08/15 09:09:18;;;;;;;1999.90;999.90;;;22.80;99.90;;;;;;5056608;28;20180;-79
2021/08/15 09:11:49;;;;;;;1999.90;999.90;;;23.10;99.90;;;;;;5056523;28;20387;-78
2021/08/15 09:14:22;;;;;;;1999.90;999.90;;;23.40;99.90;;;;;;5056337;28;20376;-79
2021/08/15 09:17:06;;;;;;;1999.90;999.90;;;23.60;99.90;;;;;;5038260;28;20969;-78
2021/08/15 09:19:36;;;;;;;1999.90;999.90;;;23.70;99.90;;;;;;5055785;28;20403;-79
2021/08/15 09:22:23;;;;;;;1999.90;999.90;;;24.00;99.90;;;;;;5055937;28;20395;-78
2021/08/15 09:25:01;;;;;;;1999.90;999.90;;;24.00;99.90;;;;;;5037764;28;20450;-77
2021/08/15 09:28:01;;;;;;;1999.90;999.90;;;24.10;99.90;;;;;;5038340;28;20439;-77
2021/08/15 09:30:28;;;;;;;1999.90;999.90;;;24.30;99.90;;;;;;5056273;28;20747;-79
2021/08/15 09:33:17;;;;;;;1999.90;999.90;;;24.50;99.90;;;;;;5056544;28;20870;-78
2021/08/15 09:35:43;;;;;;;1999.90;999.90;;;24.60;99.90;;;;;;5055797;28;20387;-78
2021/08/15 09:38:13;;;;;;;1999.90;999.90;;;24.60;99.90;;;;;;5055876;28;20412;-79
2021/08/15 09:40:45;;;;;;;1999.90;999.90;;;24.60;99.90;;;;;;5055670;28;20732;-78
2021/08/15 09:43:25;;;;;;;1999.90;999.90;;;24.60;99.90;;;;;;5055547;28;20435;-77
2021/08/15 09:45:56;;;;;;;1999.90;999.90;;;24.70;99.90;;;;;;5056241;28;20422;-79
2021/08/15 09:48:24;;;;;;;1999.90;999.90;;;24.90;99.90;;;;;;5055243;28;20423;-78
2021/08/15 09:51:15;;;;;;;1999.90;999.90;;;25.00;99.90;;;;;;5055127;28;20803;-78
2021/08/15 09:53:45;;;;;;;1999.90;999.90;;;25.20;99.50;;;;;;5037594;28;20780;-79
2021/08/15 09:56:12;;;;;;;1999.90;999.90;;;25.30;99.70;;;;;;5055653;28;20387;-78
2021/08/15 09:58:39;;;;;;;1999.90;999.90;;;25.50;98.60;;;;;;5055581;28;20916;-78
2021/08/15 10:01:07;;;;;;;1999.90;999.90;;;25.70;99.90;;;;;;5038300;28;20400;-79
2021/08/15 10:03:37;;;;;;;1999.90;999.90;;;25.90;98.00;;;;;;5056191;28;20397;-79
2021/08/15 10:06:04;;;;;;;1999.90;999.90;;;26.00;91.80;;;;;;5055464;28;20444;-78
2021/08/15 10:08:30;;;;;;;1999.90;999.90;;;26.10;90.00;;;;;;5055659;28;20405;-79
2021/08/15 10:10:57;;;;;;;1999.90;999.90;;;25.90;92.70;;;;;;5055255;28;20500;-78
2021/08/15 10:13:26;;;;;;;1999.90;999.90;;;25.70;94.00;;;;;;5055642;28;20460;-79
2021/08/15 10:16:07;;;;;;;1999.90;999.90;;;25.50;92.10;;;;;;5055592;28;20410;-78
2021/08/15 10:18:37;;;;;;;1999.90;999.90;;;25.30;94.90;;;;;;5055554;28;20832;-78
2021/08/15 10:21:18;;;;;;;1999.90;999.90;;;25.50;95.10;;;;;;5055041;28;20412;-78
2021/08/15 10:23:46;;;;;;;1999.90;999.90;;;25.60;87.30;;;;;;5055233;28;20393;-79
2021/08/15 10:26:32;;;;;;;1999.90;999.90;;;25.80;84.40;;;;;;5037609;28;20476;-79
2021/08/15 10:28:57;;;;;;;1999.90;999.90;;;26.00;82.60;;;;;;5038567;28;20828;-79
2021/08/15 10:31:23;;;;;;;1999.90;999.90;;;26.00;73.10;;;;;;5055543;28;20406;-79
2021/08/15 10:33:57;;;;;;;1999.90;999.90;;;25.80;70.50;;;;;;5055786;28;20170;-77
2021/08/15 10:36:28;;;;;;;1999.90;999.90;;;25.70;75.00;;;;;;5055193;28;20182;-78
2021/08/15 10:38:57;;;;;;;1999.90;999.90;;;25.70;85.40;;;;;;5038050;28;20822;-79
2021/08/15 10:41:46;;;;;;;1999.90;999.90;;;25.90;73.60;;;;;;5037510;28;20407;-79
2021/08/15 10:44:13;;;;;;;1999.90;999.90;;;26.30;72.10;;;;;;5054670;28;20410;-79
2021/08/15 10:47:07;;;;;;;1999.90;999.90;;;26.50;70.80;;;;;;5037436;28;20833;-79
2021/08/15 10:49:53;;;;;;;1999.90;999.90;;;26.70;63.80;;;;;;5055143;28;20399;-79
2021/08/15 10:52:40;;;;;;;1999.90;999.90;;;26.70;53.40;;;;;;5037541;28;20417;-79
2021/08/15 10:55:18;;;;;;;1999.90;999.90;;;26.70;42.20;;;;;;5055607;28;20928;-79
2021/08/15 10:57:47;;;;;;;1999.90;999.90;;;26.80;36.80;;;;;;5037009;28;20434;-79
2021/08/15 11:00:31;;;;;;;1999.90;999.90;;;26.90;36.70;;;;;;5054837;28;20968;-79
2021/08/15 11:02:58;;;;;;;1999.90;999.90;;;26.90;32.40;;;;;;5037054;28;20408;-79
2021/08/15 11:05:40;;;;;;;1999.90;999.90;;;27.00;33.80;;;;;;5054954;28;20581;-79
2021/08/15 11:08:28;;;;;;;1999.90;999.90;;;27.10;27.10;;;;;;5055147;28;20419;-79
2021/08/15 11:11:23;;;;;;;1999.90;999.90;;;27.30;20.80;;;;;;5054702;28;20435;-79
2021/08/15 11:14:20;;;;;;;1999.90;999.90;;;27.50;35.10;;;;;;5036969;28;20406;-79
2021/08/15 11:16:57;;;;;;;1999.90;999.90;;;27.60;22.70;;;;;;5036994;28;20497;-78
2021/08/15 11:19:23;;;;;;;1999.90;999.90;;;27.80;20.40;;;;;;5037067;28;20456;-78
2021/08/15 11:22:10;;;;;;;1999.90;999.90;;;27.90;16.10;;;;;;5055205;28;20403;-78
2021/08/15 11:24:43;;;;;;;1999.90;999.90;;;28.00;16.70;;;;;;5036990;28;20536;-79
2021/08/15 11:27:10;;;;;;;1999.90;999.90;;;28.20;10.60;;;;;;5037328;28;20435;-79
2021/08/15 11:29:39;;;;;;;1999.90;999.90;;;28.00;9.40;;;;;;5056658;28;20403;-78
2021/08/15 11:32:20;;;;;;;1999.90;999.90;;;28.00;13.40;;;;;;5058616;28;20406;-79
2021/08/15 11:35:07;;;;;;;1999.90;999.90;;;28.20;14.30;;;;;;5040878;28;20452;-79
2021/08/15 11:37:39;;;;;;;1999.90;999.90;;;28.10;14.00;;;;;;5040954;28;20435;-78
2021/08/15 11:40:14;;;;;;;1999.90;999.90;;;28.10;13.80;;;;;;5058370;28;20418;-78
2021/08/15 11:42:40;;;;;;;1999.90;999.90;;;28.10;12.90;;;;;;5040268;28;20422;-79
2021/08/15 11:45:06;;;;;;;1999.90;999.90;;;28.20;10.00;;;;;;5058304;28;20446;-78
2021/08/15 11:47:34;;;;;;;1999.90;999.90;;;28.10;7.40;;;;;;5058270;28;20423;-78
2021/08/15 11:52:35;;;;;;;1999.90;999.90;;;28.30;10.10;;;;;;5056464;28;20462;-77
2021/08/15 11:55:03;;;;;;;1999.90;999.90;;;28.40;7.00;;;;;;5058833;28;20727;-78
2021/08/15 11:57:44;;;;;;;1999.90;999.90;;;28.50;13.40;;;;;;5046015;28;20424;-79
2021/08/15 12:00:10;;;;;;;1999.90;999.90;;;28.40;5.90;;;;;;5038755;28;20376;-79
2021/08/15 12:02:36;;;;;;;1999.90;999.90;;;28.50;7.10;;;;;;5038209;28;20442;-78
2021/08/15 12:05:02;;;;;;;1999.90;999.90;;;28.50;5.50;;;;;;5037999;28;20511;-79
2021/08/15 12:07:28;;;;;;;1999.90;999.90;;;28.70;5.90;;;;;;5037896;28;20196;-78